Time;durP1;ratioP1;P1;durP2;ratioP2;P2;SDS_P1;SDS_P2;PMS_P1;PMS_P2;Temp;Humidity;BMP_temperature;BMP_pressure;BME280_temperature;BME280_humidity;BME280_pressure;Samples;Min_cycle;Max_cycle;Signal;HPM_P1;HPM_P2
2022/05/24 00:00:46;;;;;;;1.10;0.80;;;20.20;99.90;;;;;;7351537;19;20476;-83
2022/05/24 00:03:15;;;;;;;2.33;1.80;;;20.20;99.90;;;;;;7369638;19;20512;-83
2022/05/24 00:05:45;;;;;;;0.83;0.67;;;20.20;99.90;;;;;;7364801;19;20404;-82
2022/05/24 00:08:17;;;;;;;1.37;0.70;;;19.90;99.90;;;;;;7365696;19;20419;-83
2022/05/24 00:10:51;;;;;;;2.30;0.70;;;19.90;99.90;;;;;;7356293;19;20404;-83
2022/05/24 00:13:20;;;;;;;1.43;0.90;;;19.90;99.90;;;;;;7365991;19;21199;-83
2022/05/24 00:15:50;;;;;;;0.93;0.70;;;19.90;99.90;;;;;;7362700;19;20427;-82
2022/05/24 00:18:26;;;;;;;1.43;0.73;;;19.90;99.90;;;;;;7363561;19;20404;-83
2022/05/24 00:21:00;;;;;;;1.00;0.80;;;19.90;99.90;;;;;;7370270;19;20415;-82
2022/05/24 00:23:38;;;;;;;1.40;0.90;;;19.80;99.90;;;;;;7368259;19;20424;-82
2022/05/24 00:26:10;;;;;;;2.33;0.70;;;19.80;99.90;;;;;;7359566;19;20428;-82
2022/05/24 00:28:40;;;;;;;3.37;0.90;;;19.80;99.90;;;;;;7366107;19;20400;-82
2022/05/24 00:31:09;;;;;;;1.63;0.70;;;19.80;99.90;;;;;;7357138;19;20454;-82
2022/05/24 00:33:41;;;;;;;1.23;0.70;;;19.80;99.90;;;;;;7372472;19;20830;-83
2022/05/24 00:36:11;;;;;;;0.90;0.83;;;19.80;99.90;;;;;;7368575;19;20424;-82
2022/05/24 00:38:43;;;;;;;0.90;0.90;;;19.80;99.90;;;;;;7370015;19;20409;-82
2022/05/24 00:41:24;;;;;;;1.23;0.70;;;19.90;99.90;;;;;;7367770;19;20817;-83
2022/05/24 00:43:59;;;;;;;1.27;0.80;;;19.80;99.90;;;;;;7359861;19;20393;-82
2022/05/24 00:46:42;;;;;;;2.20;0.60;;;19.80;99.90;;;;;;7367315;19;20515;-82
2022/05/24 00:49:17;;;;;;;0.93;0.80;;;19.80;99.90;;;;;;7363033;19;20408;-83
2022/05/24 00:51:51;;;;;;;2.87;0.80;;;19.80;99.90;;;;;;7371907;19;20424;-83
2022/05/24 00:54:23;;;;;;;0.70;0.50;;;19.80;99.90;;;;;;7361844;19;21043;-83
2022/05/24 00:56:58;;;;;;;1.10;0.80;;;19.90;99.90;;;;;;7356162;19;20450;-83
2022/05/24 00:59:34;;;;;;;1.10;0.80;;;20.00;99.90;;;;;;7365147;19;20407;-83
2022/05/24 01:02:05;;;;;;;0.87;0.70;;;20.10;99.90;;;;;;7350370;19;21093;-83
2022/05/24 01:04:38;;;;;;;0.70;0.70;;;19.90;99.90;;;;;;7371519;19;20487;-82
2022/05/24 01:07:09;;;;;;;1.00;0.60;;;19.90;99.90;;;;;;7378529;19;20376;-82
2022/05/24 01:09:50;;;;;;;0.60;0.60;;;19.90;99.90;;;;;;7361027;19;20408;-82
2022/05/24 01:12:23;;;;;;;0.60;0.60;;;19.90;99.90;;;;;;7365291;19;20421;-82
2022/05/24 01:15:00;;;;;;;1.80;0.70;;;19.80;99.90;;;;;;7361355;19;20404;-81
2022/05/24 01:17:30;;;;;;;1.33;0.53;;;19.50;99.90;;;;;;7369341;19;20514;-82
2022/05/24 01:20:00;;;;;;;0.50;0.50;;;19.40;99.90;;;;;;7357503;19;21321;-82
2022/05/24 01:22:58;;;;;;;1.93;0.63;;;19.50;99.90;;;;;;7364237;19;20408;-83
2022/05/24 01:25:38;;;;;;;0.80;0.77;;;19.50;99.90;;;;;;7371026;19;20457;-82
2022/05/24 01:28:18;;;;;;;0.83;0.73;;;19.30;99.90;;;;;;7372276;19;20524;-83
2022/05/24 01:30:50;;;;;;;2.10;0.90;;;19.50;99.90;;;;;;7360157;19;20407;-84
2022/05/24 01:36:13;;;;;;;1.90;0.63;;;19.40;99.90;;;;;;7367029;19;20416;-84
2022/05/24 01:38:48;;;;;;;2.60;0.97;;;19.40;99.90;;;;;;7365001;19;20506;-84
2022/05/24 01:41:22;;;;;;;0.80;0.70;;;19.40;99.90;;;;;;7370252;19;21603;-84
2022/05/24 01:43:56;;;;;;;1.10;0.50;;;19.50;99.90;;;;;;7369592;19;20423;-83
2022/05/24 01:46:33;;;;;;;0.83;0.70;;;19.60;99.90;;;;;;7360803;19;20990;-84
2022/05/24 01:49:07;;;;;;;1.50;1.03;;;19.60;99.90;;;;;;7369709;19;20426;-85
2022/05/24 01:51:41;;;;;;;2.10;0.70;;;19.50;99.90;;;;;;7368771;19;20404;-84
2022/05/24 01:54:15;;;;;;;0.80;0.60;;;19.30;99.90;;;;;;7370672;19;20430;-83
2022/05/24 01:56:49;;;;;;;0.90;0.53;;;19.40;99.90;;;;;;7369978;19;20439;-82
2022/05/24 01:59:25;;;;;;;1.23;0.70;;;19.40;99.90;;;;;;7369990;19;20408;-85
2022/05/24 02:01:57;;;;;;;0.50;0.43;;;19.40;99.90;;;;;;7368998;19;20993;-82
2022/05/24 02:04:32;;;;;;;0.60;0.60;;;19.40;99.90;;;;;;7373705;19;20403;-83
2022/05/24 02:07:04;;;;;;;0.63;0.60;;;19.40;99.90;;;;;;7372622;19;20428;-80
2022/05/24 02:09:37;;;;;;;1.00;1.00;;;19.30;99.90;;;;;;7366291;19;21157;-82
2022/05/24 02:12:15;;;;;;;1.47;0.87;;;19.10;99.90;;;;;;7367124;19;20847;-80
2022/05/24 02:14:53;;;;;;;0.90;0.80;;;19.00;99.90;;;;;;7366272;19;20433;-83
2022/05/24 02:17:27;;;;;;;0.70;0.60;;;19.00;99.90;;;;;;7366513;19;20986;-80
2022/05/24 02:20:00;;;;;;;0.97;0.60;;;18.60;99.90;;;;;;7373096;19;20408;-80
2022/05/24 02:22:31;;;;;;;1.10;0.90;;;18.40;99.90;;;;;;7363415;19;20419;-80
2022/05/24 02:25:08;;;;;;;0.63;0.63;;;18.50;99.90;;;;;;7374012;19;20480;-80
2022/05/24 02:27:43;;;;;;;1.10;0.70;;;18.50;99.90;;;;;;7369657;19;20427;-80
2022/05/24 02:30:20;;;;;;;0.97;0.80;;;18.40;99.90;;;;;;7368761;19;20400;-82
2022/05/24 02:32:50;;;;;;;1.00;0.90;;;18.30;99.90;;;;;;7379338;19;20396;-80
2022/05/24 02:35:22;;;;;;;1.00;0.90;;;18.30;99.90;;;;;;7385307;19;20924;-82
2022/05/24 02:37:54;;;;;;;1.13;1.00;;;18.10;99.90;;;;;;7390828;19;20393;-82
2022/05/24 02:43:10;;;;;;;0.73;0.73;;;18.00;99.90;;;;;;7380787;19;20737;-82
2022/05/24 02:45:42;;;;;;;0.80;0.80;;;17.80;99.90;;;;;;7366400;19;20954;-82
2022/05/24 02:48:12;;;;;;;0.93;0.80;;;17.30;99.90;;;;;;7368490;19;20424;-82
2022/05/24 02:50:42;;;;;;;1.13;1.03;;;17.40;99.90;;;;;;7372935;19;20400;-82
2022/05/24 02:53:11;;;;;;;1.00;0.90;;;17.20;99.90;;;;;;7374236;19;20445;-82
2022/05/24 02:55:41;;;;;;;0.97;0.80;;;17.30;99.90;;;;;;7370187;19;20461;-82
2022/05/24 02:58:11;;;;;;;3.03;0.97;;;17.30;99.90;;;;;;7369343;19;20563;-81
2022/05/24 03:00:44;;;;;;;1.00;0.90;;;17.20;99.90;;;;;;7372279;19;20416;-81
2022/05/24 03:03:16;;;;;;;0.90;0.70;;;17.00;99.90;;;;;;7367848;19;20873;-81
2022/05/24 03:05:46;;;;;;;0.87;0.67;;;17.20;99.90;;;;;;7375274;19;21185;-82
2022/05/24 03:11:09;;;;;;;1.30;1.00;;;17.30;99.90;;;;;;7368949;19;20417;-81
2022/05/24 03:16:26;;;;;;;0.90;0.90;;;17.50;99.90;;;;;;7371599;19;20779;-82
2022/05/24 03:18:58;;;;;;;0.83;0.80;;;17.20;99.90;;;;;;7371276;19;20919;-81
2022/05/24 03:21:28;;;;;;;3.30;0.97;;;17.30;99.90;;;;;;7370139;19;20408;-81
2022/05/24 03:23:58;;;;;;;1.20;1.10;;;17.40;99.90;;;;;;7370572;19;20968;-80
2022/05/24 03:26:27;;;;;;;0.93;0.90;;;17.40;99.90;;;;;;7372395;19;20411;-82
2022/05/24 03:29:01;;;;;;;1.00;0.80;;;17.50;99.90;;;;;;7370034;19;20433;-81
2022/05/24 03:31:35;;;;;;;0.83;0.80;;;17.60;99.90;;;;;;7370863;19;20981;-81
2022/05/24 03:34:07;;;;;;;1.20;1.10;;;17.70;99.90;;;;;;7367848;19;20760;-81
2022/05/24 03:36:39;;;;;;;7.73;1.13;;;17.90;99.90;;;;;;7371894;19;20523;-82
2022/05/24 03:39:10;;;;;;;0.97;0.87;;;17.80;99.90;;;;;;7368343;19;20429;-81
2022/05/24 03:41:43;;;;;;;2.07;1.03;;;17.80;99.90;;;;;;7370792;19;20412;-81
2022/05/24 03:44:13;;;;;;;1.70;0.67;;;18.00;99.90;;;;;;7363118;19;20401;-81
2022/05/24 03:46:45;;;;;;;1.27;0.90;;;18.00;99.90;;;;;;7356240;19;20767;-82
2022/05/24 03:49:17;;;;;;;1.50;1.30;;;18.00;99.90;;;;;;7369056;19;20392;-80
2022/05/24 03:51:46;;;;;;;0.70;0.70;;;18.00;99.90;;;;;;7369703;19;20405;-82
2022/05/24 03:54:16;;;;;;;1.47;0.77;;;17.90;99.90;;;;;;7365968;19;20415;-82
2022/05/24 03:59:35;;;;;;;0.70;0.70;;;17.90;99.90;;;;;;7373299;19;21014;-80
2022/05/24 04:02:10;;;;;;;1.80;0.80;;;17.70;99.90;;;;;;7369224;19;21039;-82
2022/05/24 04:04:41;;;;;;;0.70;0.70;;;17.90;99.90;;;;;;7372660;19;21906;-80
2022/05/24 04:07:15;;;;;;;7.20;0.80;;;17.80;99.90;;;;;;7374246;19;20412;-81
2022/05/24 04:09:45;;;;;;;1.70;1.07;;;17.90;99.90;;;;;;7374989;19;20405;-81
2022/05/24 04:12:17;;;;;;;3.33;1.13;;;17.80;99.90;;;;;;7373382;19;20532;-81
2022/05/24 04:14:49;;;;;;;0.80;0.80;;;18.00;99.90;;;;;;7376328;19;21269;-81
2022/05/24 04:17:21;;;;;;;1.83;1.00;;;18.00;99.90;;;;;;7370256;19;20453;-81
2022/05/24 04:19:50;;;;;;;0.90;0.80;;;18.10;99.90;;;;;;7374348;19;20403;-82
2022/05/24 04:22:20;;;;;;;1.03;0.93;;;18.10;99.90;;;;;;7370173;19;20433;-82
2022/05/24 04:24:49;;;;;;;1.37;1.00;;;18.10;99.90;;;;;;7371343;19;20439;-82
2022/05/24 04:27:19;;;;;;;5.17;0.80;;;18.10;99.90;;;;;;7359074;19;20408;-83
2022/05/24 04:29:51;;;;;;;1.00;0.90;;;18.10;99.90;;;;;;7367768;19;20416;-82
2022/05/24 04:32:24;;;;;;;0.73;0.73;;;18.00;99.90;;;;;;7350034;19;21149;-82
2022/05/24 04:34:53;;;;;;;2.80;1.00;;;18.20;99.90;;;;;;7375114;19;20424;-82
2022/05/24 04:37:23;;;;;;;1.37;0.70;;;18.30;99.90;;;;;;7373013;19;20392;-82
2022/05/24 04:39:54;;;;;;;2.53;1.00;;;18.30;99.90;;;;;;7374996;19;20553;-82
2022/05/24 04:42:24;;;;;;;0.83;0.83;;;18.20;99.90;;;;;;7368956;19;20400;-82
2022/05/24 04:44:56;;;;;;;1.50;0.90;;;18.30;99.90;;;;;;7370797;19;20424;-81
2022/05/24 04:47:30;;;;;;;2.53;1.03;;;18.30;99.90;;;;;;7372405;19;20400;-81
2022/05/24 04:50:04;;;;;;;2.43;1.00;;;18.20;99.90;;;;;;7372722;19;20415;-82
2022/05/24 04:52:37;;;;;;;1.23;1.10;;;18.10;99.90;;;;;;7364156;19;20409;-82
2022/05/24 04:55:09;;;;;;;1.33;0.93;;;18.10;99.90;;;;;;7367583;19;21144;-80
2022/05/24 04:57:38;;;;;;;1.27;1.17;;;18.20;99.90;;;;;;7369898;19;21409;-80
2022/05/24 05:00:14;;;;;;;1.20;0.87;;;18.50;99.90;;;;;;7372717;19;20404;-80
2022/05/24 05:02:47;;;;;;;2.00;1.00;;;18.10;99.90;;;;;;7364641;19;20904;-78
2022/05/24 05:05:19;;;;;;;3.63;1.40;;;18.10;99.90;;;;;;7368392;19;20427;-79
2022/05/24 05:07:49;;;;;;;0.97;0.90;;;18.10;99.90;;;;;;7365277;19;20431;-80
2022/05/24 05:10:18;;;;;;;1.17;1.03;;;18.20;99.90;;;;;;7366865;19;20437;-80
2022/05/24 05:12:48;;;;;;;2.80;1.30;;;18.40;99.90;;;;;;7370396;19;20425;-79
2022/05/24 05:15:19;;;;;;;1.00;0.90;;;18.70;99.90;;;;;;7370016;19;20404;-77
2022/05/24 05:17:51;;;;;;;1.33;1.20;;;18.80;99.90;;;;;;7379223;19;20958;-76
2022/05/24 05:20:20;;;;;;;7.10;1.20;;;18.60;99.90;;;;;;7396226;19;20416;-76
2022/05/24 05:22:50;;;;;;;1.30;1.00;;;18.60;99.90;;;;;;7375767;19;20412;-76
2022/05/24 05:25:19;;;;;;;12.57;1.70;;;18.60;99.90;;;;;;7371443;19;20424;-74
2022/05/24 05:27:49;;;;;;;1.77;1.20;;;18.70;99.90;;;;;;7362687;19;20409;-73
2022/05/24 05:33:06;;;;;;;2.10;1.10;;;18.60;99.90;;;;;;7358975;19;20396;-77
2022/05/24 05:35:38;;;;;;;3.60;1.63;;;18.80;99.90;;;;;;7364548;19;20451;-79
2022/05/24 05:38:08;;;;;;;4.83;2.10;;;19.00;99.90;;;;;;7369600;19;20498;-79
2022/05/24 05:40:37;;;;;;;1.60;1.27;;;19.10;99.90;;;;;;7370480;19;20420;-78
2022/05/24 05:43:09;;;;;;;2.57;1.20;;;19.10;99.90;;;;;;7355412;19;20416;-78
2022/05/24 05:45:39;;;;;;;4.33;1.97;;;19.00;99.90;;;;;;7369265;19;20375;-78
2022/05/24 05:48:12;;;;;;;1.67;1.30;;;19.00;99.90;;;;;;7367913;19;20679;-79
2022/05/24 05:50:41;;;;;;;2.00;1.30;;;19.10;99.90;;;;;;7371766;19;20400;-78
2022/05/24 05:53:11;;;;;;;4.37;1.30;;;19.10;99.90;;;;;;7372681;19;20411;-78
2022/05/24 05:55:41;;;;;;;3.27;1.47;;;19.10;99.90;;;;;;7372826;19;20786;-79
2022/05/24 05:58:14;;;;;;;5.33;1.60;;;19.20;99.90;;;;;;7371482;19;20979;-79
2022/05/24 06:00:44;;;;;;;1.03;0.93;;;19.20;99.90;;;;;;7369734;19;20476;-79
2022/05/24 06:03:17;;;;;;;1.27;1.17;;;19.30;99.70;;;;;;7372729;19;21370;-78
2022/05/24 06:05:50;;;;;;;4.50;1.97;;;19.20;99.80;;;;;;7371444;19;20399;-79
2022/05/24 06:08:23;;;;;;;2.13;1.20;;;19.60;99.90;;;;;;7373433;19;20971;-78
2022/05/24 06:10:54;;;;;;;3.50;1.37;;;19.90;98.20;;;;;;7373483;19;20447;-78
2022/05/24 06:13:27;;;;;;;1.93;1.23;;;20.00;97.80;;;;;;7373209;19;20380;-79
2022/05/24 06:15:57;;;;;;;2.70;0.93;;;19.90;97.80;;;;;;7374837;19;20931;-77
2022/05/24 06:18:29;;;;;;;2.43;2.07;;;19.90;96.90;;;;;;7369283;19;20412;-78
2022/05/24 06:21:01;;;;;;;2.30;1.33;;;19.70;96.90;;;;;;7374446;19;21214;-78
2022/05/24 06:23:31;;;;;;;3.10;0.93;;;19.90;97.00;;;;;;7368246;19;20445;-79
2022/05/24 06:26:03;;;;;;;2.03;1.00;;;19.80;95.40;;;;;;7375704;19;20408;-79
2022/05/24 06:28:33;;;;;;;1.00;1.00;;;19.80;95.70;;;;;;7368313;19;20404;-78
2022/05/24 06:31:03;;;;;;;1.73;1.10;;;19.60;95.60;;;;;;7372874;19;21512;-79
2022/05/24 06:33:35;;;;;;;5.17;1.10;;;19.60;96.10;;;;;;7373183;19;21235;-78
2022/05/24 06:36:07;;;;;;;1.53;1.43;;;19.70;96.50;;;;;;7371729;19;20430;-78
2022/05/24 06:38:39;;;;;;;1.77;1.07;;;19.40;96.70;;;;;;7371473;19;20392;-78
2022/05/24 06:41:08;;;;;;;1.23;1.13;;;19.20;96.80;;;;;;7367064;19;20793;-79
2022/05/24 06:43:40;;;;;;;1.30;1.20;;;19.10;97.40;;;;;;7362475;19;20408;-78
2022/05/24 06:46:10;;;;;;;1.83;1.00;;;19.10;97.90;;;;;;7365179;19;20508;-78
2022/05/24 06:48:44;;;;;;;1.97;1.20;;;19.30;96.80;;;;;;7369463;19;20420;-78
2022/05/24 06:51:15;;;;;;;1.97;1.00;;;19.30;96.70;;;;;;7374899;19;20747;-79
2022/05/24 06:53:47;;;;;;;1.47;1.23;;;19.40;96.40;;;;;;7367941;19;20438;-78
2022/05/24 06:56:20;;;;;;;2.13;1.30;;;19.40;96.30;;;;;;7370432;19;20515;-79
2022/05/24 06:58:49;;;;;;;1.57;1.10;;;19.60;95.80;;;;;;7369454;19;21027;-79
2022/05/24 07:04:06;;;;;;;4.40;1.43;;;19.60;95.60;;;;;;7372238;19;20759;-79
2022/05/24 07:06:38;;;;;;;1.37;1.17;;;19.70;95.30;;;;;;7369799;19;20380;-79
2022/05/24 07:09:08;;;;;;;3.30;1.63;;;19.70;95.10;;;;;;7368784;19;20411;-79
2022/05/24 07:11:37;;;;;;;1.90;1.00;;;19.80;94.80;;;;;;7368614;19;20397;-77
2022/05/24 07:14:07;;;;;;;7.90;0.90;;;19.90;93.60;;;;;;7370951;19;20449;-77
2022/05/24 07:16:37;;;;;;;1.73;0.90;;;19.50;94.90;;;;;;7371036;19;20399;-77
2022/05/24 07:19:11;;;;;;;1.03;0.70;;;19.10;96.30;;;;;;7372366;19;21229;-77
2022/05/24 07:21:41;;;;;;;1.20;0.80;;;18.30;98.30;;;;;;7373181;19;20423;-77
2022/05/24 07:24:13;;;;;;;3.67;0.70;;;18.20;97.90;;;;;;7371801;19;20534;-78
2022/05/24 07:26:44;;;;;;;1.00;0.60;;;18.30;98.50;;;;;;7370513;19;20420;-77
2022/05/24 07:29:14;;;;;;;2.40;0.93;;;18.10;98.30;;;;;;7378219;19;20424;-78
2022/05/24 07:31:43;;;;;;;1.33;0.60;;;17.90;99.90;;;;;;7380271;19;20399;-77
2022/05/24 07:34:16;;;;;;;0.90;0.70;;;17.90;99.90;;;;;;7379515;19;20380;-78
2022/05/24 07:36:45;;;;;;;1.17;0.60;;;18.10;99.90;;;;;;7377840;19;20400;-78
2022/05/24 07:39:15;;;;;;;1.80;1.00;;;18.00;99.90;;;;;;7381982;19;20376;-78
2022/05/24 07:47:11;;;;;;;2.00;0.63;;;18.20;99.50;;;;;;7376532;19;20400;-78
2022/05/24 07:49:45;;;;;;;1.50;0.70;;;18.30;98.90;;;;;;7377165;19;20368;-77
2022/05/24 07:52:17;;;;;;;0.90;0.67;;;18.30;99.50;;;;;;7374289;19;20467;-77
2022/05/24 07:54:50;;;;;;;1.70;0.70;;;18.50;97.70;;;;;;7374618;19;20400;-78
2022/05/24 07:57:19;;;;;;;1.30;0.57;;;18.60;97.20;;;;;;7374323;19;20463;-78
2022/05/24 07:59:49;;;;;;;1.57;0.60;;;18.40;97.70;;;;;;7376856;19;20544;-78
2022/05/24 08:02:19;;;;;;;1.43;0.80;;;18.40;99.40;;;;;;7379714;19;20765;-78
2022/05/24 08:04:55;;;;;;;2.93;0.90;;;18.40;99.90;;;;;;7377832;19;21164;-78
2022/05/24 08:07:25;;;;;;;0.80;0.57;;;18.30;99.90;;;;;;7375577;19;20494;-78
2022/05/24 08:09:54;;;;;;;1.50;0.87;;;18.50;99.60;;;;;;7376835;19;20427;-77
2022/05/24 08:12:26;;;;;;;0.80;0.60;;;18.90;99.00;;;;;;7385151;19;20533;-77
2022/05/24 08:14:56;;;;;;;0.60;0.57;;;18.70;96.40;;;;;;7377597;19;20979;-77
2022/05/24 08:17:30;;;;;;;0.83;0.57;;;18.60;97.60;;;;;;7376662;19;20437;-78
2022/05/24 08:20:02;;;;;;;2.27;0.80;;;18.60;98.00;;;;;;7377617;19;20878;-78
2022/05/24 08:22:35;;;;;;;1.63;0.77;;;18.70;98.10;;;;;;7376623;19;20407;-78
2022/05/24 08:25:04;;;;;;;0.90;0.53;;;18.60;96.30;;;;;;7376756;19;20894;-76
2022/05/24 08:27:36;;;;;;;0.77;0.63;;;18.30;97.50;;;;;;7373533;19;20401;-78
2022/05/24 08:30:07;;;;;;;2.07;0.70;;;18.30;97.50;;;;;;7373155;19;20392;-78
2022/05/24 08:32:39;;;;;;;0.97;0.90;;;18.20;98.40;;;;;;7373602;19;20924;-76
2022/05/24 08:35:16;;;;;;;0.50;0.40;;;18.40;97.50;;;;;;7376323;19;20528;-78
2022/05/24 08:37:48;;;;;;;1.60;0.60;;;18.60;95.90;;;;;;7375236;19;21007;-76
2022/05/24 08:40:22;;;;;;;1.00;0.60;;;18.30;96.10;;;;;;7371095;19;21738;-76
2022/05/24 08:43:12;;;;;;;1.13;0.83;;;19.00;96.70;;;;;;7375475;19;20724;-79
2022/05/24 08:48:51;;;;;;;1.40;0.67;;;19.00;94.60;;;;;;7370553;19;20392;-76
2022/05/24 08:51:27;;;;;;;1.57;0.60;;;19.00;95.70;;;;;;7369825;19;20459;-76
2022/05/24 08:53:59;;;;;;;0.77;0.50;;;19.20;94.70;;;;;;7375254;19;21674;-76
2022/05/24 08:56:34;;;;;;;1.43;0.90;;;19.30;95.10;;;;;;7375791;19;20455;-78
2022/05/24 08:59:11;;;;;;;1.03;0.60;;;19.40;92.90;;;;;;7377624;19;20420;-79
2022/05/24 09:01:45;;;;;;;1.00;0.50;;;19.30;92.80;;;;;;7374592;19;20384;-76
2022/05/24 09:04:15;;;;;;;1.10;0.77;;;19.40;92.90;;;;;;7378397;19;20419;-76
2022/05/24 09:06:56;;;;;;;0.97;0.50;;;19.50;92.50;;;;;;7374921;19;20412;-76
2022/05/24 09:09:49;;;;;;;0.70;0.70;;;19.50;89.00;;;;;;7371988;19;20424;-78
2022/05/24 09:12:33;;;;;;;0.60;0.50;;;19.70;87.40;;;;;;7373182;19;20408;-76
2022/05/24 09:15:11;;;;;;;1.10;0.60;;;19.70;85.30;;;;;;7373453;19;20407;-78
2022/05/24 09:17:52;;;;;;;1.00;0.60;;;19.90;87.60;;;;;;7376071;19;20411;-77
2022/05/24 09:20:34;;;;;;;0.50;0.40;;;19.90;88.50;;;;;;7372933;19;20424;-77
2022/05/24 09:23:13;;;;;;;0.70;0.60;;;20.20;82.20;;;;;;7374120;19;20516;-78
2022/05/24 09:25:56;;;;;;;0.50;0.50;;;20.30;83.50;;;;;;7371626;19;20511;-78
2022/05/24 09:28:48;;;;;;;0.83;0.60;;;20.20;82.70;;;;;;7372800;19;20447;-78
2022/05/24 09:31:25;;;;;;;3.20;0.77;;;20.10;80.50;;;;;;7375658;19;20489;-78
2022/05/24 09:33:58;;;;;;;0.80;0.50;;;20.20;81.80;;;;;;7373940;19;21207;-78
2022/05/24 09:36:37;;;;;;;0.77;0.57;;;20.30;79.50;;;;;;7375742;19;20424;-78
2022/05/24 09:39:24;;;;;;;2.57;0.60;;;20.20;78.80;;;;;;7372912;19;20416;-78
2022/05/24 09:42:00;;;;;;;0.53;0.40;;;20.20;77.70;;;;;;7374380;19;20400;-78
2022/05/24 09:44:31;;;;;;;0.60;0.60;;;20.30;75.70;;;;;;7375960;19;20958;-77
2022/05/24 09:47:03;;;;;;;0.80;0.40;;;20.40;78.20;;;;;;7370203;19;20380;-79
2022/05/24 09:49:35;;;;;;;0.73;0.53;;;20.70;69.80;;;;;;7374772;19;20466;-78
2022/05/24 09:52:13;;;;;;;1.63;0.80;;;20.90;70.10;;;;;;7371855;19;21260;-78
2022/05/24 09:54:56;;;;;;;1.07;0.40;;;20.90;66.90;;;;;;7372285;19;20420;-78
2022/05/24 09:57:28;;;;;;;0.80;0.50;;;20.70;65.30;;;;;;7373787;19;20572;-78
2022/05/24 10:00:09;;;;;;;0.73;0.60;;;20.50;68.40;;;;;;7372278;19;20526;-78
2022/05/24 10:02:42;;;;;;;0.97;0.50;;;20.40;69.30;;;;;;7376490;19;20400;-79
2022/05/24 10:05:20;;;;;;;1.70;0.47;;;20.30;71.60;;;;;;7375662;19;20420;-78
2022/05/24 10:08:00;;;;;;;0.57;0.50;;;20.60;71.80;;;;;;7374927;19;20412;-78
2022/05/24 10:10:57;;;;;;;2.80;0.63;;;21.10;68.40;;;;;;7373521;19;20423;-79
2022/05/24 10:13:40;;;;;;;0.50;0.40;;;21.90;68.70;;;;;;7373566;19;20881;-79
2022/05/24 10:16:19;;;;;;;1.10;0.60;;;22.40;60.60;;;;;;7374315;19;20972;-77
2022/05/24 10:19:13;;;;;;;1.10;0.53;;;22.70;61.70;;;;;;7366185;19;21475;-77
2022/05/24 10:21:50;;;;;;;0.60;0.50;;;23.20;56.50;;;;;;7373130;19;20384;-79
2022/05/24 10:24:31;;;;;;;0.63;0.50;;;23.40;54.80;;;;;;7371139;19;20392;-78
2022/05/24 10:27:13;;;;;;;0.73;0.40;;;23.60;50.10;;;;;;7372620;19;21132;-78
2022/05/24 10:29:52;;;;;;;1.50;0.70;;;23.40;51.30;;;;;;7373115;19;20416;-77
2022/05/24 10:38:21;;;;;;;0.50;0.50;;;22.90;54.60;;;;;;7372264;19;20412;-78
2022/05/24 10:41:05;;;;;;;0.93;0.50;;;23.10;51.40;;;;;;7370816;19;21261;-78
2022/05/24 10:43:57;;;;;;;1.93;0.60;;;23.20;53.60;;;;;;7375258;19;20487;-78
2022/05/24 10:46:35;;;;;;;0.87;0.70;;;23.40;49.00;;;;;;7367182;19;20412;-78
2022/05/24 10:49:16;;;;;;;1.50;0.67;;;23.10;49.00;;;;;;7358962;19;20408;-78
2022/05/24 10:51:51;;;;;;;0.70;0.50;;;22.90;53.00;;;;;;7363813;19;20368;-77
2022/05/24 10:54:31;;;;;;;1.10;0.80;;;22.40;51.00;;;;;;7356973;19;20395;-77
2022/05/24 10:57:09;;;;;;;1.33;0.50;;;22.30;51.30;;;;;;7358523;19;20550;-77
2022/05/24 11:00:00;;;;;;;1.23;0.80;;;22.30;50.20;;;;;;7363078;19;20451;-77
2022/05/24 11:02:41;;;;;;;1.10;0.70;;;22.00;51.30;;;;;;7358620;19;20404;-78
2022/05/24 11:05:17;;;;;;;2.33;0.63;;;22.00;52.50;;;;;;7363810;19;20768;-78
2022/05/24 11:07:51;;;;;;;2.37;0.77;;;21.90;52.80;;;;;;7374679;19;20508;-79
2022/05/24 11:10:28;;;;;;;1.60;0.93;;;21.90;52.30;;;;;;7360751;19;20408;-78
2022/05/24 11:13:06;;;;;;;1.07;0.73;;;21.80;53.40;;;;;;7375242;19;20368;-79
2022/05/24 11:15:43;;;;;;;0.70;0.53;;;22.00;51.20;;;;;;7372093;19;20408;-78
2022/05/24 11:18:17;;;;;;;0.80;0.73;;;22.10;51.40;;;;;;7379339;19;20423;-78
2022/05/24 11:20:57;;;;;;;0.90;0.60;;;22.20;51.30;;;;;;7370416;19;20403;-79
2022/05/24 11:23:30;;;;;;;1.60;0.70;;;22.30;50.90;;;;;;7376331;19;20415;-76
2022/05/24 11:26:06;;;;;;;1.03;0.70;;;22.30;50.80;;;;;;7364817;19;20424;-76
2022/05/24 11:28:43;;;;;;;0.63;0.60;;;22.50;50.40;;;;;;7363700;19;20809;-77
2022/05/24 11:31:40;;;;;;;1.33;0.70;;;22.70;50.10;;;;;;7364454;19;20419;-75
2022/05/24 11:34:19;;;;;;;0.60;0.60;;;22.80;51.00;;;;;;7375625;19;20528;-76
2022/05/24 11:36:51;;;;;;;0.83;0.60;;;23.00;50.80;;;;;;7371295;19;20756;-76
2022/05/24 11:39:29;;;;;;;1.60;0.80;;;23.40;49.60;;;;;;7366897;19;20379;-77
2022/05/24 11:42:35;;;;;;;3.23;2.70;;;23.60;48.60;;;;;;7366829;19;20430;-76
2022/05/24 11:45:35;;;;;;;1.07;0.90;;;23.90;48.40;;;;;;7370771;19;20424;-75
2022/05/24 11:48:20;;;;;;;2.27;0.70;;;23.80;48.50;;;;;;7376359;19;20392;-75
2022/05/24 11:50:53;;;;;;;1.60;1.10;;;23.60;48.00;;;;;;7378493;19;20419;-75
2022/05/24 11:53:39;;;;;;;2.60;1.40;;;23.30;48.00;;;;;;7374665;19;20483;-76
2022/05/24 11:56:21;;;;;;;1.50;0.80;;;23.10;49.30;;;;;;7376795;19;20464;-76
2022/05/24 11:58:56;;;;;;;1.13;0.90;;;22.90;49.30;;;;;;7368689;19;20376;-76
2022/05/24 12:01:50;;;;;;;3.70;1.00;;;22.90;52.10;;;;;;7368031;19;20813;-76
2022/05/24 12:10:44;;;;;;;1.20;0.77;;;22.90;52.40;;;;;;7375012;19;20448;-76
2022/05/24 12:13:38;;;;;;;5.23;0.73;;;22.90;55.80;;;;;;7372882;19;20408;-75
2022/05/24 12:16:29;;;;;;;2.40;1.20;;;22.90;51.20;;;;;;7373526;19;20423;-76
2022/05/24 12:19:03;;;;;;;0.93;0.63;;;22.70;55.50;;;;;;7375036;19;20406;-76
2022/05/24 12:22:02;;;;;;;1.30;0.80;;;23.20;53.60;;;;;;7377795;19;20488;-76
2022/05/24 12:24:55;;;;;;;1.10;0.57;;;22.70;54.70;;;;;;7378374;19;20442;-76
2022/05/24 12:27:35;;;;;;;3.77;0.87;;;22.80;51.00;;;;;;7374641;19;20421;-76
2022/05/24 12:30:22;;;;;;;3.60;1.00;;;22.80;53.60;;;;;;7377260;19;20409;-76
2022/05/24 12:32:52;;;;;;;1.60;0.80;;;22.90;50.90;;;;;;7369417;19;20400;-78
2022/05/24 12:35:24;;;;;;;1.80;0.83;;;22.80;50.00;;;;;;7362765;19;20416;-79
2022/05/24 12:37:58;;;;;;;1.20;0.90;;;22.80;49.60;;;;;;7367358;19;21351;-79
2022/05/24 12:40:30;;;;;;;0.60;0.50;;;22.90;49.50;;;;;;7369546;19;20433;-79
2022/05/24 12:43:04;;;;;;;2.30;0.70;;;23.70;49.70;;;;;;7373915;19;20404;-79
2022/05/24 12:45:36;;;;;;;0.77;0.43;;;23.50;47.30;;;;;;7367381;19;21041;-78
2022/05/24 12:48:08;;;;;;;0.60;0.47;;;23.30;46.50;;;;;;7367709;19;20417;-77
2022/05/24 12:50:41;;;;;;;1.70;0.67;;;23.00;46.00;;;;;;7372122;19;20935;-78
2022/05/24 12:53:15;;;;;;;0.67;0.40;;;23.00;46.60;;;;;;7370688;19;20484;-79
2022/05/24 12:58:36;;;;;;;1.00;0.70;;;23.60;45.50;;;;;;7365116;19;20408;-78
2022/05/24 13:01:21;;;;;;;1.37;0.60;;;23.90;44.30;;;;;;7369185;19;20435;-79
2022/05/24 13:03:57;;;;;;;1.20;0.60;;;24.10;44.90;;;;;;7375653;19;20394;-78
2022/05/24 13:06:39;;;;;;;0.60;0.50;;;24.00;44.20;;;;;;7373597;19;20408;-78
2022/05/24 13:09:21;;;;;;;1.03;0.50;;;23.70;44.10;;;;;;7367977;19;20514;-78
2022/05/24 13:11:55;;;;;;;0.90;0.57;;;23.60;43.80;;;;;;7371643;19;20412;-78
2022/05/24 13:14:45;;;;;;;1.97;0.60;;;23.50;44.00;;;;;;7371707;19;20392;-79
2022/05/24 13:17:20;;;;;;;6.67;1.73;;;23.30;44.60;;;;;;7340897;19;20436;-78
2022/05/24 13:19:55;;;;;;;1.67;0.70;;;23.30;45.40;;;;;;7370026;19;20941;-79
2022/05/24 13:22:27;;;;;;;1.33;0.70;;;22.90;46.10;;;;;;7374067;19;20471;-78
2022/05/24 13:25:02;;;;;;;1.50;0.70;;;23.10;46.80;;;;;;7370739;19;20893;-78
2022/05/24 13:27:52;;;;;;;2.13;0.70;;;22.90;46.80;;;;;;7372567;19;20419;-78
2022/05/24 13:33:35;;;;;;;3.00;1.10;;;22.90;47.40;;;;;;7365723;19;20464;-78
2022/05/24 13:36:23;;;;;;;2.60;1.00;;;23.00;48.10;;;;;;7369896;19;20420;-78
2022/05/24 13:39:13;;;;;;;3.60;0.60;;;23.20;48.10;;;;;;7369691;19;20412;-78
2022/05/24 13:41:56;;;;;;;1.93;0.90;;;23.50;47.30;;;;;;7369872;19;20415;-78
2022/05/24 13:44:29;;;;;;;0.63;0.57;;;23.70;46.90;;;;;;7367008;19;20385;-78
2022/05/24 13:47:02;;;;;;;0.57;0.40;;;23.70;45.80;;;;;;7366951;19;20455;-78
2022/05/24 13:49:39;;;;;;;1.17;0.80;;;23.80;46.00;;;;;;7373560;19;20400;-78
2022/05/24 13:52:27;;;;;;;1.47;0.73;;;23.70;46.10;;;;;;7369168;19;20412;-78
2022/05/24 13:55:15;;;;;;;0.97;0.57;;;23.80;46.60;;;;;;7367145;19;20408;-78
2022/05/24 13:57:56;;;;;;;0.97;0.60;;;24.00;45.80;;;;;;7363768;19;20400;-79
2022/05/24 14:00:38;;;;;;;1.10;0.83;;;23.80;44.50;;;;;;7362306;19;22280;-79
2022/05/24 14:03:27;;;;;;;0.90;0.70;;;23.80;44.60;;;;;;7381136;19;20372;-79
2022/05/24 14:06:10;;;;;;;1.03;0.80;;;23.80;44.90;;;;;;7364365;19;20423;-78
2022/05/24 14:08:45;;;;;;;0.77;0.60;;;23.70;44.40;;;;;;7366546;19;20417;-79
2022/05/24 14:11:19;;;;;;;4.43;0.60;;;23.80;45.10;;;;;;7376044;19;20420;-78
2022/05/24 14:13:51;;;;;;;1.30;0.77;;;23.60;44.00;;;;;;7368834;19;20392;-78